Meridian, Arkansas
Current Conditions -  °F | °C
As of 8:35 PM on Wednesday 26 Nov 2014 (Local Time) from KBQP Reporting Station
Clear Clear  
Wind Chill: 46°   Ceiling: Unl
Heat Index: 49°   Visibility: 10mi
Dew Point: 35°   Wind: 7mph
Humidity: 58%   Direction: 320°NW
Pressure: 30.23"   Gusts: NA
Location:  33.1917°N, 91.9836°W
Report Text: KBQP 270235Z AUTO 32006KT 10SM CLR 10/02 A3023 RMK AO2 T00960016
Loading
Personal Weather Stations






























Interactive Weather Map New forecast layout! Learn more

10-Day Weather Forecast

Advertisements
Track Severe Weather on mobile